sensor_id;sensor_type;location;lat;lon;timestamp;P1;durP1;ratioP1;P2;durP2;ratioP2
64099;SDS011;50385;61.766;38.054;2022-11-27T00:01:09;1.50;;;1.40;;
64099;SDS011;50385;61.766;38.054;2022-11-27T00:03:40;2.10;;;1.88;;
64099;SDS011;50385;61.766;38.054;2022-11-27T00:06:10;1.58;;;1.52;;
64099;SDS011;50385;61.766;38.054;2022-11-27T00:08:39;1.15;;;1.15;;
64099;SDS011;50385;61.766;38.054;2022-11-27T00:11:06;1.70;;;1.60;;
64099;SDS011;50385;61.766;38.054;2022-11-27T00:13:35;1.80;;;1.70;;
64099;SDS011;50385;61.766;38.054;2022-11-27T00:16:02;2.05;;;1.85;;
64099;SDS011;50385;61.766;38.054;2022-11-27T00:18:30;1.48;;;1.38;;
64099;SDS011;50385;61.766;38.054;2022-11-27T00:21:01;2.08;;;1.98;;
64099;SDS011;50385;61.766;38.054;2022-11-27T00:23:32;2.58;;;2.08;;
64099;SDS011;50385;61.766;38.054;2022-11-27T00:26:00;2.10;;;2.00;;
64099;SDS011;50385;61.766;38.054;2022-11-27T00:28:27;1.95;;;1.85;;
64099;SDS011;50385;61.766;38.054;2022-11-27T00:30:58;2.25;;;2.05;;
64099;SDS011;50385;61.766;38.054;2022-11-27T00:33:29;1.40;;;1.35;;
64099;SDS011;50385;61.766;38.054;2022-11-27T00:36:00;4.22;;;2.35;;
64099;SDS011;50385;61.766;38.054;2022-11-27T00:38:31;2.00;;;1.73;;
64099;SDS011;50385;61.766;38.054;2022-11-27T00:41:03;1.70;;;1.60;;
64099;SDS011;50385;61.766;38.054;2022-11-27T00:43:32;6.88;;;2.22;;
64099;SDS011;50385;61.766;38.054;2022-11-27T00:46:00;2.42;;;1.80;;
64099;SDS011;50385;61.766;38.054;2022-11-27T00:48:27;1.83;;;1.73;;
64099;SDS011;50385;61.766;38.054;2022-11-27T00:51:01;2.20;;;2.10;;
64099;SDS011;50385;61.766;38.054;2022-11-27T00:53:30;1.30;;;1.30;;
64099;SDS011;50385;61.766;38.054;2022-11-27T00:55:57;3.65;;;2.20;;
64099;SDS011;50385;61.766;38.054;2022-11-27T00:58:25;2.33;;;1.33;;
64099;SDS011;50385;61.766;38.054;2022-11-27T01:00:55;2.15;;;2.05;;
64099;SDS011;50385;61.766;38.054;2022-11-27T01:03:24;2.03;;;1.92;;
64099;SDS011;50385;61.766;38.054;2022-11-27T01:05:51;1.95;;;1.85;;
64099;SDS011;50385;61.766;38.054;2022-11-27T01:08:18;1.42;;;1.40;;
64099;SDS011;50385;61.766;38.054;2022-11-27T01:10:52;1.20;;;1.20;;
64099;SDS011;50385;61.766;38.054;2022-11-27T01:13:23;2.17;;;1.98;;
64099;SDS011;50385;61.766;38.054;2022-11-27T01:16:26;2.40;;;1.63;;
64099;SDS011;50385;61.766;38.054;2022-11-27T01:18:49;4.07;;;1.50;;
64099;SDS011;50385;61.766;38.054;2022-11-27T01:21:18;1.77;;;1.67;;
64099;SDS011;50385;61.766;38.054;2022-11-27T01:23:46;1.80;;;1.70;;
64099;SDS011;50385;61.766;38.054;2022-11-27T01:26:13;1.85;;;1.75;;
64099;SDS011;50385;61.766;38.054;2022-11-27T01:28:41;1.50;;;1.40;;
64099;SDS011;50385;61.766;38.054;2022-11-27T01:31:10;1.45;;;1.45;;
64099;SDS011;50385;61.766;38.054;2022-11-27T01:33:39;1.42;;;1.33;;
64099;SDS011;50385;61.766;38.054;2022-11-27T01:36:06;2.38;;;1.48;;
64099;SDS011;50385;61.766;38.054;2022-11-27T01:38:34;1.70;;;1.60;;
64099;SDS011;50385;61.766;38.054;2022-11-27T01:43:47;1.48;;;1.23;;
64099;SDS011;50385;61.766;38.054;2022-11-27T01:46:35;2.15;;;1.63;;
64099;SDS011;50385;61.766;38.054;2022-11-27T01:51:58;2.17;;;1.77;;
64099;SDS011;50385;61.766;38.054;2022-11-27T01:54:28;1.67;;;1.58;;
64099;SDS011;50385;61.766;38.054;2022-11-27T01:56:58;2.20;;;2.00;;
64099;SDS011;50385;61.766;38.054;2022-11-27T01:59:27;2.10;;;1.90;;
64099;SDS011;50385;61.766;38.054;2022-11-27T02:01:54;1.83;;;1.58;;
64099;SDS011;50385;61.766;38.054;2022-11-27T02:04:21;2.70;;;1.85;;
64099;SDS011;50385;61.766;38.054;2022-11-27T02:06:48;2.80;;;2.08;;
64099;SDS011;50385;61.766;38.054;2022-11-27T02:09:15;1.65;;;1.55;;
64099;SDS011;50385;61.766;38.054;2022-11-27T02:11:48;1.10;;;1.10;;
64099;SDS011;50385;61.766;38.054;2022-11-27T02:14:29;1.75;;;1.65;;
64099;SDS011;50385;61.766;38.054;2022-11-27T02:17:11;1.95;;;1.85;;
64099;SDS011;50385;61.766;38.054;2022-11-27T02:31:01;1.65;;;1.58;;
64099;SDS011;50385;61.766;38.054;2022-11-27T02:33:36;1.20;;;1.20;;
64099;SDS011;50385;61.766;38.054;2022-11-27T02:36:07;1.77;;;1.67;;
64099;SDS011;50385;61.766;38.054;2022-11-27T02:38:41;1.65;;;1.58;;
64099;SDS011;50385;61.766;38.054;2022-11-27T02:41:20;7.82;;;1.80;;
64099;SDS011;50385;61.766;38.054;2022-11-27T02:43:50;2.38;;;1.75;;
64099;SDS011;50385;61.766;38.054;2022-11-27T02:46:18;1.40;;;1.38;;
64099;SDS011;50385;61.766;38.054;2022-11-27T02:48:49;1.73;;;1.45;;
64099;SDS011;50385;61.766;38.054;2022-11-27T02:51:19;1.65;;;1.55;;
64099;SDS011;50385;61.766;38.054;2022-11-27T02:53:50;1.70;;;1.60;;
64099;SDS011;50385;61.766;38.054;2022-11-27T02:56:21;1.65;;;1.58;;
64099;SDS011;50385;61.766;38.054;2022-11-27T02:58:51;1.92;;;1.80;;
64099;SDS011;50385;61.766;38.054;2022-11-27T03:01:22;2.08;;;1.63;;
64099;SDS011;50385;61.766;38.054;2022-11-27T03:03:51;2.00;;;1.90;;
64099;SDS011;50385;61.766;38.054;2022-11-27T03:06:25;1.20;;;1.20;;
64099;SDS011;50385;61.766;38.054;2022-11-27T03:09:04;1.35;;;1.35;;
64099;SDS011;50385;61.766;38.054;2022-11-27T03:11:32;1.58;;;1.48;;
64099;SDS011;50385;61.766;38.054;2022-11-27T03:14:00;1.50;;;1.40;;
64099;SDS011;50385;61.766;38.054;2022-11-27T03:22:14;1.35;;;1.27;;
64099;SDS011;50385;61.766;38.054;2022-11-27T03:24:42;1.83;;;1.73;;
64099;SDS011;50385;61.766;38.054;2022-11-27T03:27:10;2.38;;;2.05;;
64099;SDS011;50385;61.766;38.054;2022-11-27T03:29:46;1.75;;;1.65;;
64099;SDS011;50385;61.766;38.054;2022-11-27T03:32:17;1.70;;;1.60;;
64099;SDS011;50385;61.766;38.054;2022-11-27T03:34:44;1.67;;;1.58;;
64099;SDS011;50385;61.766;38.054;2022-11-27T03:37:12;1.63;;;1.55;;
64099;SDS011;50385;61.766;38.054;2022-11-27T03:39:39;1.40;;;1.40;;
64099;SDS011;50385;61.766;38.054;2022-11-27T03:45:18;1.45;;;1.45;;
64099;SDS011;50385;61.766;38.054;2022-11-27T03:53:24;1.67;;;1.58;;
64099;SDS011;50385;61.766;38.054;2022-11-27T03:58:46;1.73;;;1.63;;
64099;SDS011;50385;61.766;38.054;2022-11-27T04:01:15;1.30;;;1.30;;
64099;SDS011;50385;61.766;38.054;2022-11-27T04:03:44;2.25;;;1.95;;
64099;SDS011;50385;61.766;38.054;2022-11-27T04:06:11;2.25;;;2.15;;
64099;SDS011;50385;61.766;38.054;2022-11-27T04:08:38;2.03;;;1.90;;
64099;SDS011;50385;61.766;38.054;2022-11-27T04:11:05;2.95;;;2.22;;
64099;SDS011;50385;61.766;38.054;2022-11-27T04:13:32;3.70;;;2.25;;
64099;SDS011;50385;61.766;38.054;2022-11-27T04:15:59;1.73;;;1.65;;
64099;SDS011;50385;61.766;38.054;2022-11-27T04:18:26;1.92;;;1.83;;
64099;SDS011;50385;61.766;38.054;2022-11-27T04:20:53;1.30;;;1.30;;
64099;SDS011;50385;61.766;38.054;2022-11-27T04:23:20;2.03;;;1.88;;
64099;SDS011;50385;61.766;38.054;2022-11-27T04:25:48;2.08;;;1.98;;
64099;SDS011;50385;61.766;38.054;2022-11-27T04:28:15;2.55;;;2.40;;
64099;SDS011;50385;61.766;38.054;2022-11-27T04:30:49;1.70;;;1.60;;
64099;SDS011;50385;61.766;38.054;2022-11-27T04:33:17;1.55;;;1.45;;
64099;SDS011;50385;61.766;38.054;2022-11-27T04:35:44;1.65;;;1.60;;
64099;SDS011;50385;61.766;38.054;2022-11-27T04:38:11;1.65;;;1.55;;
64099;SDS011;50385;61.766;38.054;2022-11-27T04:40:38;1.83;;;1.73;;
64099;SDS011;50385;61.766;38.054;2022-11-27T04:43:05;1.42;;;1.40;;
64099;SDS011;50385;61.766;38.054;2022-11-27T04:45:32;1.70;;;1.65;;
64099;SDS011;50385;61.766;38.054;2022-11-27T04:47:59;2.33;;;2.13;;
64099;SDS011;50385;61.766;38.054;2022-11-27T04:50:26;1.48;;;1.38;;
64099;SDS011;50385;61.766;38.054;2022-11-27T04:52:53;1.88;;;1.77;;
64099;SDS011;50385;61.766;38.054;2022-11-27T04:55:20;1.88;;;1.77;;
64099;SDS011;50385;61.766;38.054;2022-11-27T04:57:47;2.10;;;2.00;;
64099;SDS011;50385;61.766;38.054;2022-11-27T05:00:14;8.57;;;2.28;;
64099;SDS011;50385;61.766;38.054;2022-11-27T05:02:41;1.60;;;1.60;;
64099;SDS011;50385;61.766;38.054;2022-11-27T05:05:08;2.08;;;1.98;;
64099;SDS011;50385;61.766;38.054;2022-11-27T05:07:35;3.22;;;2.58;;
64099;SDS011;50385;61.766;38.054;2022-11-27T05:10:03;1.42;;;1.40;;
64099;SDS011;50385;61.766;38.054;2022-11-27T05:12:30;1.55;;;1.50;;
64099;SDS011;50385;61.766;38.054;2022-11-27T05:14:57;1.75;;;1.67;;
64099;SDS011;50385;61.766;38.054;2022-11-27T05:17:24;1.90;;;1.80;;
64099;SDS011;50385;61.766;38.054;2022-11-27T05:19:51;3.17;;;1.77;;
64099;SDS011;50385;61.766;38.054;2022-11-27T05:22:18;1.45;;;1.45;;
64099;SDS011;50385;61.766;38.054;2022-11-27T05:24:45;1.92;;;1.83;;
64099;SDS011;50385;61.766;38.054;2022-11-27T05:27:12;1.92;;;1.83;;
64099;SDS011;50385;61.766;38.054;2022-11-27T05:29:39;1.50;;;1.40;;
64099;SDS011;50385;61.766;38.054;2022-11-27T05:32:06;1.52;;;1.52;;
64099;SDS011;50385;61.766;38.054;2022-11-27T05:34:32;1.80;;;1.70;;
64099;SDS011;50385;61.766;38.054;2022-11-27T05:37:00;4.93;;;2.00;;
64099;SDS011;50385;61.766;38.054;2022-11-27T05:39:27;2.05;;;1.95;;
64099;SDS011;50385;61.766;38.054;2022-11-27T05:41:54;1.67;;;1.58;;
64099;SDS011;50385;61.766;38.054;2022-11-27T05:44:20;1.50;;;1.48;;
64099;SDS011;50385;61.766;38.054;2022-11-27T05:46:47;1.40;;;1.40;;
64099;SDS011;50385;61.766;38.054;2022-11-27T05:49:14;1.80;;;1.70;;
64099;SDS011;50385;61.766;38.054;2022-11-27T05:51:42;2.00;;;1.73;;
64099;SDS011;50385;61.766;38.054;2022-11-27T05:54:08;1.60;;;1.50;;
64099;SDS011;50385;61.766;38.054;2022-11-27T05:56:35;1.33;;;1.33;;
64099;SDS011;50385;61.766;38.054;2022-11-27T05:59:02;1.92;;;1.83;;
64099;SDS011;50385;61.766;38.054;2022-11-27T06:01:29;1.88;;;1.77;;
64099;SDS011;50385;61.766;38.054;2022-11-27T06:03:56;1.85;;;1.75;;
64099;SDS011;50385;61.766;38.054;2022-11-27T06:06:23;1.20;;;1.20;;
64099;SDS011;50385;61.766;38.054;2022-11-27T06:08:50;2.38;;;2.25;;
64099;SDS011;50385;61.766;38.054;2022-11-27T06:11:18;12.45;;;2.03;;
64099;SDS011;50385;61.766;38.054;2022-11-27T06:13:47;1.70;;;1.60;;
64099;SDS011;50385;61.766;38.054;2022-11-27T06:16:18;1.60;;;1.50;;
64099;SDS011;50385;61.766;38.054;2022-11-27T06:18:49;2.95;;;2.70;;
64099;SDS011;50385;61.766;38.054;2022-11-27T06:21:17;2.25;;;2.00;;
64099;SDS011;50385;61.766;38.054;2022-11-27T06:23:45;1.92;;;1.83;;
64099;SDS011;50385;61.766;38.054;2022-11-27T06:26:16;7.50;;;3.65;;
64099;SDS011;50385;61.766;38.054;2022-11-27T06:28:44;3.22;;;2.88;;
64099;SDS011;50385;61.766;38.054;2022-11-27T06:31:14;3.53;;;2.95;;
64099;SDS011;50385;61.766;38.054;2022-11-27T06:33:42;15.10;;;3.10;;
64099;SDS011;50385;61.766;38.054;2022-11-27T06:36:09;28.02;;;6.03;;
64099;SDS011;50385;61.766;38.054;2022-11-27T06:38:36;12.15;;;6.18;;
64099;SDS011;50385;61.766;38.054;2022-11-27T06:41:10;8.93;;;6.60;;
64099;SDS011;50385;61.766;38.054;2022-11-27T06:43:41;5.05;;;4.47;;
64099;SDS011;50385;61.766;38.054;2022-11-27T06:46:11;6.20;;;4.10;;
64099;SDS011;50385;61.766;38.054;2022-11-27T06:48:40;2.50;;;2.30;;
64099;SDS011;50385;61.766;38.054;2022-11-27T06:51:08;3.25;;;2.88;;
64099;SDS011;50385;61.766;38.054;2022-11-27T06:53:37;3.55;;;2.33;;
64099;SDS011;50385;61.766;38.054;2022-11-27T06:56:04;3.72;;;3.40;;
64099;SDS011;50385;61.766;38.054;2022-11-27T06:58:34;5.45;;;3.67;;
64099;SDS011;50385;61.766;38.054;2022-11-27T07:01:03;4.78;;;2.08;;
64099;SDS011;50385;61.766;38.054;2022-11-27T07:03:31;4.88;;;2.60;;
64099;SDS011;50385;61.766;38.054;2022-11-27T07:05:59;3.85;;;3.53;;
64099;SDS011;50385;61.766;38.054;2022-11-27T07:08:29;9.15;;;2.25;;
64099;SDS011;50385;61.766;38.054;2022-11-27T07:11:06;2.70;;;2.50;;
64099;SDS011;50385;61.766;38.054;2022-11-27T07:13:34;3.20;;;2.20;;
64099;SDS011;50385;61.766;38.054;2022-11-27T07:16:02;6.90;;;3.30;;
64099;SDS011;50385;61.766;38.054;2022-11-27T07:18:35;1.92;;;1.83;;
64099;SDS011;50385;61.766;38.054;2022-11-27T07:21:22;1.30;;;1.30;;
64099;SDS011;50385;61.766;38.054;2022-11-27T07:23:50;3.03;;;2.83;;
64099;SDS011;50385;61.766;38.054;2022-11-27T07:26:18;2.30;;;2.10;;
64099;SDS011;50385;61.766;38.054;2022-11-27T07:28:50;1.67;;;1.58;;
64099;SDS011;50385;61.766;38.054;2022-11-27T07:31:19;1.85;;;1.73;;
64099;SDS011;50385;61.766;38.054;2022-11-27T07:33:47;2.75;;;2.55;;
64099;SDS011;50385;61.766;38.054;2022-11-27T07:36:18;4.97;;;2.72;;
64099;SDS011;50385;61.766;38.054;2022-11-27T07:38:49;7.43;;;4.03;;
64099;SDS011;50385;61.766;38.054;2022-11-27T07:41:16;11.98;;;5.00;;
64099;SDS011;50385;61.766;38.054;2022-11-27T07:43:43;13.50;;;4.88;;
64099;SDS011;50385;61.766;38.054;2022-11-27T07:46:15;4.20;;;2.65;;
64099;SDS011;50385;61.766;38.054;2022-11-27T07:48:43;1.92;;;1.83;;
64099;SDS011;50385;61.766;38.054;2022-11-27T07:51:11;2.08;;;1.98;;
64099;SDS011;50385;61.766;38.054;2022-11-27T07:53:40;3.17;;;2.85;;
64099;SDS011;50385;61.766;38.054;2022-11-27T07:56:08;2.72;;;2.53;;
64099;SDS011;50385;61.766;38.054;2022-11-27T07:58:36;1.90;;;1.80;;
64099;SDS011;50385;61.766;38.054;2022-11-27T08:01:10;2.75;;;2.10;;
64099;SDS011;50385;61.766;38.054;2022-11-27T08:03:39;2.17;;;1.98;;
64099;SDS011;50385;61.766;38.054;2022-11-27T08:06:20;2.72;;;2.47;;
64099;SDS011;50385;61.766;38.054;2022-11-27T08:08:49;3.00;;;2.60;;
64099;SDS011;50385;61.766;38.054;2022-11-27T08:11:29;2.50;;;1.92;;
64099;SDS011;50385;61.766;38.054;2022-11-27T08:13:59;2.85;;;2.25;;
64099;SDS011;50385;61.766;38.054;2022-11-27T08:16:33;2.67;;;2.17;;
64099;SDS011;50385;61.766;38.054;2022-11-27T08:19:00;3.55;;;1.90;;
64099;SDS011;50385;61.766;38.054;2022-11-27T08:21:28;5.82;;;2.25;;
64099;SDS011;50385;61.766;38.054;2022-11-27T08:23:56;4.30;;;2.40;;
64099;SDS011;50385;61.766;38.054;2022-11-27T08:26:24;7.75;;;3.00;;
64099;SDS011;50385;61.766;38.054;2022-11-27T08:28:53;7.25;;;3.72;;
64099;SDS011;50385;61.766;38.054;2022-11-27T08:31:20;5.88;;;3.33;;
64099;SDS011;50385;61.766;38.054;2022-11-27T08:33:47;5.88;;;3.20;;
64099;SDS011;50385;61.766;38.054;2022-11-27T08:36:14;4.97;;;3.13;;
64099;SDS011;50385;61.766;38.054;2022-11-27T08:38:41;8.60;;;3.30;;
64099;SDS011;50385;61.766;38.054;2022-11-27T08:41:08;8.35;;;3.28;;
64099;SDS011;50385;61.766;38.054;2022-11-27T08:43:35;6.50;;;3.17;;
64099;SDS011;50385;61.766;38.054;2022-11-27T08:46:03;6.28;;;3.25;;
64099;SDS011;50385;61.766;38.054;2022-11-27T08:48:31;4.93;;;3.20;;
64099;SDS011;50385;61.766;38.054;2022-11-27T08:50:57;6.57;;;3.13;;
64099;SDS011;50385;61.766;38.054;2022-11-27T08:53:24;6.82;;;3.08;;
64099;SDS011;50385;61.766;38.054;2022-11-27T08:55:51;9.73;;;3.92;;
64099;SDS011;50385;61.766;38.054;2022-11-27T08:58:18;11.10;;;3.78;;
64099;SDS011;50385;61.766;38.054;2022-11-27T09:00:45;6.07;;;3.15;;
64099;SDS011;50385;61.766;38.054;2022-11-27T09:03:12;5.65;;;3.60;;
64099;SDS011;50385;61.766;38.054;2022-11-27T09:05:42;6.03;;;3.00;;
64099;SDS011;50385;61.766;38.054;2022-11-27T09:08:10;8.85;;;3.25;;
64099;SDS011;50385;61.766;38.054;2022-11-27T09:10:41;7.78;;;3.50;;
64099;SDS011;50385;61.766;38.054;2022-11-27T09:13:08;6.78;;;3.50;;
64099;SDS011;50385;61.766;38.054;2022-11-27T09:15:35;6.43;;;2.88;;
64099;SDS011;50385;61.766;38.054;2022-11-27T09:18:02;9.05;;;4.03;;
64099;SDS011;50385;61.766;38.054;2022-11-27T09:20:28;6.93;;;3.47;;
64099;SDS011;50385;61.766;38.054;2022-11-27T09:22:55;5.07;;;3.25;;
64099;SDS011;50385;61.766;38.054;2022-11-27T09:25:22;6.40;;;3.35;;
64099;SDS011;50385;61.766;38.054;2022-11-27T09:27:49;6.72;;;3.20;;
64099;SDS011;50385;61.766;38.054;2022-11-27T09:30:16;6.38;;;3.60;;
64099;SDS011;50385;61.766;38.054;2022-11-27T09:32:43;6.30;;;3.17;;
64099;SDS011;50385;61.766;38.054;2022-11-27T09:35:09;4.93;;;3.33;;
64099;SDS011;50385;61.766;38.054;2022-11-27T09:37:36;6.32;;;3.47;;
64099;SDS011;50385;61.766;38.054;2022-11-27T09:40:03;5.95;;;3.22;;
64099;SDS011;50385;61.766;38.054;2022-11-27T09:42:39;5.20;;;3.15;;
64099;SDS011;50385;61.766;38.054;2022-11-27T09:45:12;4.75;;;2.78;;
64099;SDS011;50385;61.766;38.054;2022-11-27T09:47:41;3.67;;;2.58;;
64099;SDS011;50385;61.766;38.054;2022-11-27T09:50:16;9.50;;;3.60;;
64099;SDS011;50385;61.766;38.054;2022-11-27T09:52:56;6.28;;;3.10;;
64099;SDS011;50385;61.766;38.054;2022-11-27T09:55:36;3.42;;;2.30;;
64099;SDS011;50385;61.766;38.054;2022-11-27T10:00:47;7.07;;;2.13;;
64099;SDS011;50385;61.766;38.054;2022-11-27T10:03:15;4.25;;;2.20;;
64099;SDS011;50385;61.766;38.054;2022-11-27T10:05:54;3.10;;;2.13;;
64099;SDS011;50385;61.766;38.054;2022-11-27T10:11:26;5.10;;;2.85;;
64099;SDS011;50385;61.766;38.054;2022-11-27T10:25:02;3.03;;;2.42;;
64099;SDS011;50385;61.766;38.054;2022-11-27T10:27:46;3.28;;;1.95;;
64099;SDS011;50385;61.766;38.054;2022-11-27T10:30:18;3.28;;;2.15;;
64099;SDS011;50385;61.766;38.054;2022-11-27T10:32:47;4.03;;;1.85;;
64099;SDS011;50385;61.766;38.054;2022-11-27T10:35:16;3.40;;;1.90;;
64099;SDS011;50385;61.766;38.054;2022-11-27T10:37:46;3.08;;;1.83;;
64099;SDS011;50385;61.766;38.054;2022-11-27T10:40:18;2.75;;;2.33;;
64099;SDS011;50385;61.766;38.054;2022-11-27T10:42:50;3.97;;;2.33;;
64099;SDS011;50385;61.766;38.054;2022-11-27T10:45:26;2.70;;;2.00;;
64099;SDS011;50385;61.766;38.054;2022-11-27T10:47:59;3.33;;;2.38;;
64099;SDS011;50385;61.766;38.054;2022-11-27T10:50:25;4.35;;;2.13;;
64099;SDS011;50385;61.766;38.054;2022-11-27T10:52:54;3.03;;;1.88;;
64099;SDS011;50385;61.766;38.054;2022-11-27T10:58:16;2.88;;;1.98;;
64099;SDS011;50385;61.766;38.054;2022-11-27T11:01:00;1.30;;;1.30;;
64099;SDS011;50385;61.766;38.054;2022-11-27T11:03:27;2.55;;;1.75;;
64099;SDS011;50385;61.766;38.054;2022-11-27T11:05:59;2.33;;;1.80;;
64099;SDS011;50385;61.766;38.054;2022-11-27T11:08:28;2.05;;;1.95;;
64099;SDS011;50385;61.766;38.054;2022-11-27T11:10:59;3.38;;;2.20;;
64099;SDS011;50385;61.766;38.054;2022-11-27T11:18:42;2.05;;;1.63;;
64099;SDS011;50385;61.766;38.054;2022-11-27T11:21:11;2.70;;;2.08;;
64099;SDS011;50385;61.766;38.054;2022-11-27T11:23:42;5.90;;;2.50;;
64099;SDS011;50385;61.766;38.054;2022-11-27T11:26:23;3.47;;;2.22;;
64099;SDS011;50385;61.766;38.054;2022-11-27T11:28:52;1.63;;;1.52;;
64099;SDS011;50385;61.766;38.054;2022-11-27T11:31:21;3.50;;;1.90;;
64099;SDS011;50385;61.766;38.054;2022-11-27T11:33:59;3.25;;;1.77;;
64099;SDS011;50385;61.766;38.054;2022-11-27T11:36:28;1.42;;;1.33;;
64099;SDS011;50385;61.766;38.054;2022-11-27T11:38:55;4.53;;;2.05;;
64099;SDS011;50385;61.766;38.054;2022-11-27T11:41:22;1.92;;;1.83;;
64099;SDS011;50385;61.766;38.054;2022-11-27T11:43:57;1.88;;;1.77;;
64099;SDS011;50385;61.766;38.054;2022-11-27T11:46:27;5.25;;;2.00;;
64099;SDS011;50385;61.766;38.054;2022-11-27T11:48:58;5.07;;;2.67;;
64099;SDS011;50385;61.766;38.054;2022-11-27T11:51:32;2.05;;;1.83;;
64099;SDS011;50385;61.766;38.054;2022-11-27T11:54:17;2.53;;;2.33;;
64099;SDS011;50385;61.766;38.054;2022-11-27T11:56:49;9.82;;;1.70;;
64099;SDS011;50385;61.766;38.054;2022-11-27T11:59:25;2.58;;;1.52;;
64099;SDS011;50385;61.766;38.054;2022-11-27T12:07:49;1.85;;;1.52;;
64099;SDS011;50385;61.766;38.054;2022-11-27T12:10:30;3.03;;;2.20;;
64099;SDS011;50385;61.766;38.054;2022-11-27T12:16:04;2.50;;;2.05;;
64099;SDS011;50385;61.766;38.054;2022-11-27T12:23:50;1.63;;;1.50;;
64099;SDS011;50385;61.766;38.054;2022-11-27T12:29:04;3.20;;;2.33;;
64099;SDS011;50385;61.766;38.054;2022-11-27T12:32:04;2.70;;;1.60;;
64099;SDS011;50385;61.766;38.054;2022-11-27T12:34:53;3.67;;;2.10;;
64099;SDS011;50385;61.766;38.054;2022-11-27T12:42:52;1.58;;;1.48;;
64099;SDS011;50385;61.766;38.054;2022-11-27T12:45:34;4.90;;;3.03;;
64099;SDS011;50385;61.766;38.054;2022-11-27T12:48:06;2.08;;;1.60;;
64099;SDS011;50385;61.766;38.054;2022-11-27T12:50:59;5.50;;;3.00;;
64099;SDS011;50385;61.766;38.054;2022-11-27T12:53:48;2.03;;;1.70;;
64099;SDS011;50385;61.766;38.054;2022-11-27T12:56:36;5.18;;;1.70;;
64099;SDS011;50385;61.766;38.054;2022-11-27T13:04:42;3.95;;;1.90;;
64099;SDS011;50385;61.766;38.054;2022-11-27T13:07:16;2.55;;;2.08;;
64099;SDS011;50385;61.766;38.054;2022-11-27T13:09:48;1.52;;;1.42;;
64099;SDS011;50385;61.766;38.054;2022-11-27T13:12:21;5.40;;;2.95;;
64099;SDS011;50385;61.766;38.054;2022-11-27T13:14:54;5.20;;;3.33;;
64099;SDS011;50385;61.766;38.054;2022-11-27T13:17:24;2.70;;;2.22;;
64099;SDS011;50385;61.766;38.054;2022-11-27T13:19:58;3.38;;;2.72;;
64099;SDS011;50385;61.766;38.054;2022-11-27T13:22:30;1.92;;;1.83;;
64099;SDS011;50385;61.766;38.054;2022-11-27T13:25:00;3.80;;;2.97;;
64099;SDS011;50385;61.766;38.054;2022-11-27T13:27:28;4.28;;;2.47;;
64099;SDS011;50385;61.766;38.054;2022-11-27T13:29:57;8.23;;;3.67;;
64099;SDS011;50385;61.766;38.054;2022-11-27T13:32:32;1.73;;;1.63;;
64099;SDS011;50385;61.766;38.054;2022-11-27T13:35:04;4.03;;;2.10;;
64099;SDS011;50385;61.766;38.054;2022-11-27T13:40:03;2.53;;;1.85;;
64099;SDS011;50385;61.766;38.054;2022-11-27T13:42:32;3.95;;;1.65;;
64099;SDS011;50385;61.766;38.054;2022-11-27T13:45:01;3.17;;;2.30;;
64099;SDS011;50385;61.766;38.054;2022-11-27T13:47:38;4.45;;;2.58;;
64099;SDS011;50385;61.766;38.054;2022-11-27T13:50:13;2.65;;;2.45;;
64099;SDS011;50385;61.766;38.054;2022-11-27T13:52:51;4.20;;;3.03;;
64099;SDS011;50385;61.766;38.054;2022-11-27T13:55:34;1.27;;;1.25;;
64099;SDS011;50385;61.766;38.054;2022-11-27T13:58:03;3.80;;;2.38;;
64099;SDS011;50385;61.766;38.054;2022-11-27T14:00:38;5.50;;;2.42;;
64099;SDS011;50385;61.766;38.054;2022-11-27T14:05:50;4.90;;;2.08;;
64099;SDS011;50385;61.766;38.054;2022-11-27T14:10:51;2.53;;;2.30;;
64099;SDS011;50385;61.766;38.054;2022-11-27T14:13:22;2.33;;;2.13;;
64099;SDS011;50385;61.766;38.054;2022-11-27T14:18:55;4.45;;;2.72;;
64099;SDS011;50385;61.766;38.054;2022-11-27T14:21:24;2.00;;;1.83;;
64099;SDS011;50385;61.766;38.054;2022-11-27T14:23:54;2.15;;;1.95;;
64099;SDS011;50385;61.766;38.054;2022-11-27T14:26:22;5.63;;;2.55;;
64099;SDS011;50385;61.766;38.054;2022-11-27T14:28:53;2.08;;;1.58;;
64099;SDS011;50385;61.766;38.054;2022-11-27T14:33:55;4.38;;;2.80;;
64099;SDS011;50385;61.766;38.054;2022-11-27T14:36:24;1.50;;;1.40;;
64099;SDS011;50385;61.766;38.054;2022-11-27T14:38:53;2.47;;;2.28;;
64099;SDS011;50385;61.766;38.054;2022-11-27T14:41:21;2.20;;;1.85;;
64099;SDS011;50385;61.766;38.054;2022-11-27T14:43:59;2.22;;;2.08;;
64099;SDS011;50385;61.766;38.054;2022-11-27T14:46:26;2.35;;;2.15;;
64099;SDS011;50385;61.766;38.054;2022-11-27T14:48:54;4.22;;;3.03;;
64099;SDS011;50385;61.766;38.054;2022-11-27T14:51:28;1.60;;;1.50;;
64099;SDS011;50385;61.766;38.054;2022-11-27T14:53:59;2.75;;;2.10;;
64099;SDS011;50385;61.766;38.054;2022-11-27T14:56:31;6.78;;;4.25;;
64099;SDS011;50385;61.766;38.054;2022-11-27T14:58:59;2.30;;;2.10;;
64099;SDS011;50385;61.766;38.054;2022-11-27T15:01:27;1.63;;;1.52;;
64099;SDS011;50385;61.766;38.054;2022-11-27T15:06:46;3.92;;;2.53;;
64099;SDS011;50385;61.766;38.054;2022-11-27T15:09:16;2.00;;;1.85;;
64099;SDS011;50385;61.766;38.054;2022-11-27T15:11:44;5.60;;;3.83;;
64099;SDS011;50385;61.766;38.054;2022-11-27T15:14:16;2.67;;;2.00;;
64099;SDS011;50385;61.766;38.054;2022-11-27T15:16:44;6.47;;;2.58;;
64099;SDS011;50385;61.766;38.054;2022-11-27T15:19:12;4.35;;;2.53;;
64099;SDS011;50385;61.766;38.054;2022-11-27T15:21:43;12.88;;;3.47;;
64099;SDS011;50385;61.766;38.054;2022-11-27T15:24:56;3.63;;;2.03;;
64099;SDS011;50385;61.766;38.054;2022-11-27T15:32:20;2.78;;;1.45;;
64099;SDS011;50385;61.766;38.054;2022-11-27T15:34:50;3.70;;;2.33;;
64099;SDS011;50385;61.766;38.054;2022-11-27T15:37:24;2.13;;;1.95;;
64099;SDS011;50385;61.766;38.054;2022-11-27T15:39:54;2.53;;;1.52;;
64099;SDS011;50385;61.766;38.054;2022-11-27T15:42:22;2.08;;;1.85;;
64099;SDS011;50385;61.766;38.054;2022-11-27T15:44:51;2.30;;;1.88;;
64099;SDS011;50385;61.766;38.054;2022-11-27T15:49:53;4.60;;;1.55;;
64099;SDS011;50385;61.766;38.054;2022-11-27T15:52:20;6.82;;;3.42;;
64099;SDS011;50385;61.766;38.054;2022-11-27T15:54:48;1.42;;;1.33;;
64099;SDS011;50385;61.766;38.054;2022-11-27T15:57:15;1.85;;;1.75;;
64099;SDS011;50385;61.766;38.054;2022-11-27T15:59:43;4.38;;;1.77;;
64099;SDS011;50385;61.766;38.054;2022-11-27T16:02:10;1.80;;;1.70;;
64099;SDS011;50385;61.766;38.054;2022-11-27T16:04:38;2.80;;;2.45;;
64099;SDS011;50385;61.766;38.054;2022-11-27T16:07:05;2.17;;;1.70;;
64099;SDS011;50385;61.766;38.054;2022-11-27T16:09:33;4.40;;;1.80;;
64099;SDS011;50385;61.766;38.054;2022-11-27T16:12:01;7.50;;;3.03;;
64099;SDS011;50385;61.766;38.054;2022-11-27T16:14:29;2.75;;;2.10;;
64099;SDS011;50385;61.766;38.054;2022-11-27T16:16:55;5.95;;;1.77;;
64099;SDS011;50385;61.766;38.054;2022-11-27T16:19:23;2.80;;;2.13;;
64099;SDS011;50385;61.766;38.054;2022-11-27T16:21:50;8.80;;;2.35;;
64099;SDS011;50385;61.766;38.054;2022-11-27T16:24:17;1.77;;;1.60;;
64099;SDS011;50385;61.766;38.054;2022-11-27T16:26:44;1.70;;;1.60;;
64099;SDS011;50385;61.766;38.054;2022-11-27T16:29:11;4.35;;;1.73;;
64099;SDS011;50385;61.766;38.054;2022-11-27T16:31:38;4.03;;;1.83;;
64099;SDS011;50385;61.766;38.054;2022-11-27T16:34:06;16.05;;;3.22;;
64099;SDS011;50385;61.766;38.054;2022-11-27T16:36:33;6.28;;;2.42;;
64099;SDS011;50385;61.766;38.054;2022-11-27T16:39:01;2.90;;;2.38;;
64099;SDS011;50385;61.766;38.054;2022-11-27T16:41:28;3.00;;;2.08;;